createdAt,value
2023-05-18T00:05:07.039Z,58.31
2023-05-18T00:10:28.141Z,58.44
2023-05-18T00:15:49.576Z,58.74
2023-05-18T00:21:10.309Z,58.80
2023-05-18T00:26:31.296Z,58.71
2023-05-18T00:31:52.449Z,58.90
2023-05-18T00:37:13.892Z,58.46
2023-05-18T00:42:34.834Z,58.90
2023-05-18T00:47:55.886Z,59.14
2023-05-18T00:53:17.156Z,58.83
2023-05-18T00:58:39.732Z,58.78
2023-05-18T01:04:04.151Z,58.85
2023-05-18T01:09:26.465Z,59.08
2023-05-18T01:15:11.759Z,58.32
2023-05-18T01:20:41.524Z,58.98
2023-05-18T01:26:25.164Z,58.66
2023-05-18T01:31:46.779Z,58.50
2023-05-18T01:37:07.816Z,59.04
2023-05-18T01:42:30.835Z,58.65
2023-05-18T01:47:59.260Z,58.82
2023-05-18T01:53:38.261Z,58.79
2023-05-18T01:59:00.319Z,59.24
2023-05-18T02:04:21.373Z,58.97
2023-05-18T02:09:43.008Z,58.89
2023-05-18T02:15:05.747Z,59.15
2023-05-18T02:20:28.942Z,59.35
2023-05-18T02:25:51.555Z,59.12
2023-05-18T02:31:13.111Z,59.42
2023-05-18T02:36:40.443Z,59.36
2023-05-18T02:42:02.405Z,59.01
2023-05-18T02:47:23.681Z,58.83
2023-05-18T02:52:50.028Z,59.00
2023-05-18T02:58:13.812Z,59.04
2023-05-18T03:04:01.117Z,58.98
2023-05-18T03:09:22.485Z,59.26
2023-05-18T03:14:47.564Z,59.07
2023-05-18T03:20:14.547Z,58.94
2023-05-18T03:25:37.470Z,59.27
2023-05-18T03:30:59.916Z,59.26
2023-05-18T03:36:23.149Z,59.39
2023-05-18T03:41:44.439Z,59.48
2023-05-18T03:47:05.501Z,59.10
2023-05-18T03:52:26.612Z,59.27
2023-05-18T03:57:49.019Z,59.25
2023-05-18T04:03:14.823Z,59.39
2023-05-18T04:08:36.910Z,59.43
2023-05-18T04:14:01.167Z,59.49
2023-05-18T04:19:22.893Z,59.24
2023-05-18T04:24:47.525Z,59.38
2023-05-18T04:30:11.590Z,59.30
2023-05-18T04:35:36.281Z,59.43
2023-05-18T04:41:00.505Z,59.73
2023-05-18T04:46:24.785Z,59.43
2023-05-18T04:51:47.045Z,59.55
2023-05-18T04:57:08.450Z,59.48
2023-05-18T05:02:29.813Z,59.30
2023-05-18T05:07:54.768Z,59.73
2023-05-18T05:13:16.059Z,59.86
2023-05-18T05:18:37.153Z,59.70
2023-05-18T05:23:58.797Z,59.66
2023-05-18T05:29:21.783Z,59.84
2023-05-18T05:34:46.876Z,59.79
2023-05-18T05:40:10.253Z,60.33
2023-05-18T05:45:42.992Z,60.05
2023-05-18T05:51:04.274Z,59.92
2023-05-18T05:56:26.669Z,60.06
2023-05-18T06:01:48.095Z,59.67
2023-05-18T06:07:09.729Z,59.74
2023-05-18T06:12:31.717Z,59.52
2023-05-18T06:17:52.923Z,59.94
2023-05-18T06:23:14.151Z,59.62
2023-05-18T06:28:50.342Z,59.78
2023-05-18T06:34:25.555Z,59.56
2023-05-18T06:39:46.297Z,59.47
2023-05-18T06:45:07.973Z,59.70
2023-05-18T06:50:43.726Z,59.52
2023-05-18T06:56:05.059Z,59.70
2023-05-18T07:01:26.640Z,58.81
2023-05-18T07:06:53.770Z,58.53
2023-05-18T07:12:14.913Z,59.30
2023-05-18T07:17:36.286Z,58.71
2023-05-18T07:22:57.559Z,58.42
2023-05-18T07:28:19.135Z,58.90
2023-05-18T07:33:41.177Z,57.93
2023-05-18T07:39:02.090Z,57.80
2023-05-18T07:44:23.068Z,57.45
2023-05-18T07:49:44.596Z,57.10
2023-05-18T07:55:06.040Z,56.92
2023-05-18T08:00:28.097Z,56.93
2023-05-18T08:05:49.017Z,56.82
2023-05-18T08:11:10.076Z,56.72
2023-05-18T08:16:34.762Z,56.81
2023-05-18T08:21:55.386Z,56.59
2023-05-18T08:27:16.284Z,57.10
2023-05-18T08:32:37.713Z,56.92
2023-05-18T08:37:59.774Z,57.51
2023-05-18T08:43:23.961Z,57.62
2023-05-18T08:48:47.213Z,57.37
2023-05-18T08:54:10.540Z,57.83
2023-05-18T08:59:36.685Z,57.46
2023-05-18T09:04:59.309Z,57.15
2023-05-18T09:10:20.973Z,56.96
2023-05-18T09:15:42.088Z,56.63
2023-05-18T09:21:03.103Z,57.54
2023-05-18T09:26:24.172Z,57.32
2023-05-18T09:31:46.603Z,57.35
2023-05-18T09:37:08.175Z,56.15
2023-05-18T09:42:36.932Z,56.68
2023-05-18T09:47:58.125Z,56.80
2023-05-18T09:53:19.600Z,55.57
2023-05-18T09:58:41.172Z,56.34
2023-05-18T10:04:06.465Z,55.78
2023-05-18T10:09:27.647Z,55.46
2023-05-18T10:14:49.667Z,55.44
2023-05-18T10:20:11.290Z,55.60
2023-05-18T10:25:35.406Z,55.49
2023-05-18T10:30:59.542Z,55.03
2023-05-18T10:36:22.300Z,54.86
2023-05-18T10:41:46.684Z,54.36
2023-05-18T10:47:08.736Z,54.25
2023-05-18T10:52:36.753Z,54.36
2023-05-18T10:58:07.093Z,54.34
2023-05-18T11:03:28.893Z,54.61
2023-05-18T11:08:50.972Z,53.88
2023-05-18T11:14:12.845Z,54.23
2023-05-18T11:19:33.636Z,54.19
2023-05-18T11:24:54.542Z,53.67
2023-05-18T11:30:45.781Z,54.06
2023-05-18T11:36:11.875Z,54.14
2023-05-18T11:41:39.122Z,53.75
2023-05-18T11:47:04.263Z,53.64
2023-05-18T11:52:25.897Z,53.74
2023-05-18T11:57:53.228Z,53.47
2023-05-18T12:03:14.783Z,53.71
2023-05-18T12:08:37.544Z,53.01
2023-05-18T12:13:59.930Z,54.33
2023-05-18T12:19:22.746Z,53.05
2023-05-18T12:24:44.422Z,52.92
2023-05-18T12:30:09.244Z,52.50
2023-05-18T12:35:31.519Z,52.94
2023-05-18T12:40:54.355Z,52.16
2023-05-18T12:46:15.283Z,52.64
2023-05-18T12:51:37.789Z,52.61
2023-05-18T12:57:02.450Z,52.32
2023-05-18T13:02:35.785Z,52.51
2023-05-18T13:07:57.151Z,51.61
2023-05-18T13:13:18.439Z,52.27
2023-05-18T13:18:46.958Z,51.86
2023-05-18T13:24:08.290Z,52.03
2023-05-18T13:29:29.894Z,52.12
2023-05-18T13:34:52.541Z,52.43
2023-05-18T13:40:13.903Z,52.11
2023-05-18T13:45:36.321Z,51.40
2023-05-18T13:50:57.787Z,51.56
2023-05-18T13:56:18.742Z,51.19
2023-05-18T14:01:42.422Z,51.52
2023-05-18T14:07:04.201Z,51.19
2023-05-18T14:12:24.940Z,51.21
2023-05-18T14:17:46.207Z,51.76
2023-05-18T14:23:08.975Z,51.63
2023-05-18T14:28:31.076Z,51.36
2023-05-18T14:33:51.983Z,51.66
2023-05-18T14:39:13.035Z,51.43
2023-05-18T14:44:34.493Z,51.81
2023-05-18T14:49:55.268Z,51.54
2023-05-18T14:55:16.431Z,51.57
2023-05-18T15:00:37.347Z,51.96
2023-05-18T15:05:58.471Z,51.91
2023-05-18T15:11:20.282Z,51.88
2023-05-18T15:16:42.566Z,51.65
2023-05-18T15:22:04.087Z,51.74
2023-05-18T15:27:25.383Z,52.20
2023-05-18T15:32:46.394Z,51.45
2023-05-18T15:38:07.184Z,51.60
2023-05-18T15:43:29.966Z,51.75
2023-05-18T15:48:54.071Z,51.88
2023-05-18T15:54:14.902Z,51.84
2023-05-18T15:59:35.814Z,52.36
2023-05-18T16:04:56.932Z,52.07
2023-05-18T16:10:18.702Z,52.41
2023-05-18T16:15:39.680Z,52.25
2023-05-18T16:21:00.576Z,52.49
2023-05-18T16:26:22.161Z,52.63
2023-05-18T16:31:43.314Z,52.43
2023-05-18T16:37:04.151Z,52.28
2023-05-18T16:42:26.008Z,52.42
2023-05-18T16:47:47.205Z,52.33
2023-05-18T16:53:07.832Z,52.27
2023-05-18T16:58:28.803Z,51.87
2023-05-18T17:03:50.438Z,51.98
2023-05-18T17:09:11.328Z,51.77
2023-05-18T17:14:32.177Z,51.84
2023-05-18T17:19:53.069Z,51.84
2023-05-18T17:25:14.075Z,51.84
2023-05-18T17:30:35.171Z,52.07
2023-05-18T17:35:56.296Z,51.80
2023-05-18T17:41:17.038Z,52.14
2023-05-18T17:46:38.083Z,52.04
2023-05-18T17:51:58.879Z,52.03
2023-05-18T17:57:19.913Z,51.99
2023-05-18T18:02:41.602Z,52.02
2023-05-18T18:08:02.742Z,52.64
2023-05-18T18:13:23.443Z,52.52
2023-05-18T18:18:45.010Z,52.86
2023-05-18T18:24:06.567Z,52.60
2023-05-18T18:29:29.882Z,53.00
2023-05-18T18:34:51.212Z,52.69
2023-05-18T18:40:12.536Z,52.76
2023-05-18T18:45:33.392Z,53.18
2023-05-18T18:50:54.080Z,52.75
2023-05-18T18:56:16.054Z,53.13
2023-05-18T19:01:37.284Z,53.20
2023-05-18T19:07:03.372Z,53.57
2023-05-18T19:12:24.462Z,53.21
2023-05-18T19:17:52.224Z,53.47
2023-05-18T19:23:13.394Z,53.74
2023-05-18T19:28:34.195Z,53.69
2023-05-18T19:33:55.239Z,53.88
2023-05-18T19:39:17.645Z,54.01
2023-05-18T19:44:38.954Z,53.91
2023-05-18T19:49:59.765Z,54.22
2023-05-18T19:55:21.177Z,54.20
2023-05-18T20:00:42.349Z,54.40
2023-05-18T20:06:04.319Z,54.30
2023-05-18T20:11:26.055Z,54.58
2023-05-18T20:16:46.894Z,54.29
2023-05-18T20:22:15.602Z,54.34
2023-05-18T20:27:37.196Z,54.47
2023-05-18T20:33:03.823Z,54.52
2023-05-18T20:38:26.051Z,54.79
2023-05-18T20:43:47.187Z,54.62
2023-05-18T20:49:09.378Z,54.28
2023-05-18T20:54:31.446Z,54.35
2023-05-18T20:59:52.679Z,54.56
2023-05-18T21:05:14.000Z,54.29
2023-05-18T21:10:34.826Z,54.96
2023-05-18T21:15:56.552Z,54.97
2023-05-18T21:21:17.382Z,54.76
2023-05-18T21:26:38.272Z,54.81
2023-05-18T21:31:59.073Z,54.85
2023-05-18T21:37:21.145Z,54.50
2023-05-18T21:42:45.349Z,55.06
2023-05-18T21:48:06.956Z,54.80
2023-05-18T21:53:27.864Z,54.75
2023-05-18T21:58:48.639Z,54.93
2023-05-18T22:04:09.490Z,54.94
2023-05-18T22:09:30.462Z,55.15
2023-05-18T22:14:51.287Z,55.28
2023-05-18T22:20:12.177Z,55.22
2023-05-18T22:25:33.056Z,55.47
2023-05-18T22:30:53.767Z,54.90
2023-05-18T22:36:14.901Z,55.02
2023-05-18T22:41:35.828Z,54.61
2023-05-18T22:46:56.714Z,55.09
2023-05-18T22:52:20.626Z,54.94
2023-05-18T22:57:42.633Z,55.53
2023-05-18T23:03:03.673Z,55.96
2023-05-18T23:08:24.625Z,55.86
2023-05-18T23:13:46.052Z,55.69
2023-05-18T23:19:09.588Z,55.78
2023-05-18T23:24:30.649Z,55.79
2023-05-18T23:29:53.012Z,56.16
2023-05-18T23:35:15.116Z,56.15
2023-05-18T23:40:36.119Z,56.57
2023-05-18T23:45:59.757Z,56.56
2023-05-18T23:51:21.667Z,56.70
2023-05-18T23:56:42.923Z,56.79
